Time;durP1;ratioP1;P1;durP2;ratioP2;P2;SDS_P1;SDS_P2;PMS_P1;PMS_P2;Temp;Humidity;BMP_temperature;BMP_pressure;BME280_temperature;BME280_humidity;BME280_pressure;Samples;Min_cycle;Max_cycle;Signal;HPM_P1;HPM_P2
2021/07/04 00:00:44;;;;;;;3.58;3.17;;;19.80;82.80;;;;;;5055511;28;20083;-74
2021/07/04 00:03:10;;;;;;;4.22;3.72;;;19.90;83.00;;;;;;5054455;28;20518;-74
2021/07/04 00:05:40;;;;;;;3.70;3.28;;;19.80;82.90;;;;;;5054226;28;20484;-74
2021/07/04 00:08:11;;;;;;;3.92;3.13;;;19.80;83.00;;;;;;5055319;28;20056;-73
2021/07/04 00:10:41;;;;;;;4.20;3.13;;;19.80;83.00;;;;;;5054044;28;20481;-74
2021/07/04 00:13:07;;;;;;;3.35;3.05;;;19.80;83.00;;;;;;5055430;28;20032;-74
2021/07/04 00:15:40;;;;;;;3.40;3.10;;;19.80;83.00;;;;;;5054129;28;20483;-73
2021/07/04 00:18:15;;;;;;;3.70;2.88;;;19.80;83.10;;;;;;5055323;28;20574;-73
2021/07/04 00:20:41;;;;;;;3.67;3.33;;;19.80;83.00;;;;;;5054994;28;20033;-72
2021/07/04 00:23:07;;;;;;;3.58;3.28;;;19.80;83.00;;;;;;5053822;28;20366;-74
2021/07/04 00:25:33;;;;;;;4.18;3.30;;;19.80;83.10;;;;;;5053727;28;20021;-74
2021/07/04 00:27:58;;;;;;;3.45;3.15;;;19.80;83.10;;;;;;5053761;28;20079;-75
2021/07/04 00:30:25;;;;;;;2.90;2.70;;;19.80;83.20;;;;;;5054994;28;20028;-74
2021/07/04 00:32:51;;;;;;;3.25;2.67;;;19.80;83.20;;;;;;5055037;28;20050;-74
2021/07/04 00:35:18;;;;;;;2.70;2.50;;;19.70;83.20;;;;;;5054864;28;20388;-74
2021/07/04 00:37:45;;;;;;;2.67;2.33;;;19.70;83.20;;;;;;5050896;28;20119;-75
2021/07/04 00:40:12;;;;;;;2.78;2.42;;;19.70;83.30;;;;;;5053529;28;20562;-74
2021/07/04 00:42:38;;;;;;;2.47;2.28;;;19.70;83.40;;;;;;5053434;28;20115;-74
2021/07/04 00:45:15;;;;;;;3.22;2.50;;;19.70;83.50;;;;;;5054728;28;20025;-74
2021/07/04 00:47:41;;;;;;;2.72;2.53;;;19.60;83.60;;;;;;5054584;28;20033;-74
2021/07/04 00:50:08;;;;;;;2.95;2.65;;;19.60;83.60;;;;;;5054886;28;20532;-74
2021/07/04 00:52:35;;;;;;;2.75;2.55;;;19.60;83.70;;;;;;5053372;28;20039;-75
2021/07/04 00:55:02;;;;;;;2.65;2.45;;;19.60;84.50;;;;;;5053193;28;20029;-74
2021/07/04 00:57:28;;;;;;;2.60;2.40;;;19.50;83.90;;;;;;5053296;28;20073;-74
2021/07/04 00:59:53;;;;;;;2.72;2.33;;;19.60;84.10;;;;;;5053538;28;20088;-74
2021/07/04 01:02:19;;;;;;;2.50;2.30;;;19.50;84.00;;;;;;5053072;28;20119;-74
2021/07/04 01:04:45;;;;;;;2.92;2.63;;;19.50;84.10;;;;;;5054391;28;20032;-73
2021/07/04 01:07:10;;;;;;;3.00;2.70;;;19.50;84.10;;;;;;5052674;28;20132;-74
2021/07/04 01:09:36;;;;;;;2.58;2.38;;;19.50;84.10;;;;;;5054230;28;20028;-74
2021/07/04 01:12:04;;;;;;;2.65;2.45;;;19.50;84.20;;;;;;5052997;28;20079;-74
2021/07/04 01:14:29;;;;;;;2.28;2.08;;;19.50;84.30;;;;;;5052510;28;20534;-74
2021/07/04 01:16:58;;;;;;;2.83;2.50;;;19.50;84.30;;;;;;5052698;28;20107;-74
2021/07/04 01:19:24;;;;;;;2.53;2.30;;;19.50;84.20;;;;;;5054412;28;20025;-75
2021/07/04 01:21:53;;;;;;;2.58;2.38;;;19.50;84.20;;;;;;5052725;28;20029;-74
2021/07/04 01:24:18;;;;;;;2.50;2.30;;;19.50;84.30;;;;;;5052692;28;20017;-73
2021/07/04 01:26:44;;;;;;;2.22;1.98;;;19.50;84.30;;;;;;5052998;28;20454;-73
2021/07/04 01:29:10;;;;;;;2.50;2.30;;;19.40;84.30;;;;;;5052525;28;20029;-74
2021/07/04 01:31:35;;;;;;;2.70;2.50;;;19.50;84.40;;;;;;5053908;28;20031;-74
2021/07/04 01:34:01;;;;;;;2.30;2.10;;;19.50;84.50;;;;;;5052528;28;20025;-75
2021/07/04 01:36:27;;;;;;;2.58;2.38;;;19.50;84.50;;;;;;5052479;28;20032;-74
2021/07/04 01:38:53;;;;;;;2.50;2.30;;;19.50;84.50;;;;;;5052300;28;20389;-74
2021/07/04 01:41:19;;;;;;;2.47;2.28;;;19.50;84.40;;;;;;5052723;28;20427;-73
2021/07/04 01:43:44;;;;;;;2.63;2.42;;;19.50;84.50;;;;;;5052590;28;20033;-73
2021/07/04 01:46:10;;;;;;;2.83;2.30;;;19.60;84.60;;;;;;5052074;28;20054;-73
2021/07/04 01:48:35;;;;;;;2.50;2.30;;;19.60;84.70;;;;;;5052382;28;20021;-74
2021/07/04 01:51:01;;;;;;;2.50;2.30;;;19.60;84.70;;;;;;5052180;28;20021;-73
2021/07/04 01:53:27;;;;;;;3.70;2.25;;;19.50;84.70;;;;;;5053478;28;20021;-74
2021/07/04 01:55:53;;;;;;;2.13;2.03;;;19.50;84.70;;;;;;5053428;28;20400;-74
2021/07/04 01:58:19;;;;;;;2.65;2.45;;;19.60;84.80;;;;;;5053815;28;20060;-73
2021/07/04 02:00:45;;;;;;;2.17;2.08;;;19.50;84.80;;;;;;5053685;28;20431;-73
2021/07/04 02:03:11;;;;;;;2.50;2.30;;;19.60;84.80;;;;;;5052094;28;20503;-73
2021/07/04 02:05:37;;;;;;;2.25;2.05;;;19.50;84.70;;;;;;5051920;28;20063;-74
2021/07/04 02:08:04;;;;;;;2.55;2.35;;;19.50;84.70;;;;;;5052169;28;20064;-73
2021/07/04 02:10:34;;;;;;;2.45;2.30;;;19.50;84.70;;;;;;5053066;28;20488;-74
2021/07/04 02:13:01;;;;;;;2.63;2.42;;;19.50;85.30;;;;;;5053155;28;20021;-74
2021/07/04 02:15:33;;;;;;;2.60;2.40;;;19.50;84.70;;;;;;5052299;28;20021;-73
2021/07/04 02:18:07;;;;;;;2.78;2.58;;;19.50;84.70;;;;;;5053126;28;20033;-73
2021/07/04 02:20:41;;;;;;;3.05;2.45;;;19.50;84.70;;;;;;5051859;28;20017;-73
2021/07/04 02:23:12;;;;;;;2.55;2.35;;;19.60;85.40;;;;;;5053074;28;20029;-73
2021/07/04 02:25:39;;;;;;;2.97;2.40;;;19.50;84.80;;;;;;5051650;28;20070;-73
2021/07/04 02:28:06;;;;;;;2.70;2.50;;;19.50;84.70;;;;;;5052179;28;20036;-73
2021/07/04 02:30:33;;;;;;;2.50;2.30;;;19.50;84.80;;;;;;5051491;28;20074;-74
2021/07/04 02:33:03;;;;;;;3.22;2.60;;;19.50;84.80;;;;;;5051592;28;20031;-74
2021/07/04 02:35:33;;;;;;;2.80;2.60;;;19.50;84.80;;;;;;5051858;28;20028;-73
2021/07/04 02:37:59;;;;;;;2.60;2.40;;;19.50;84.80;;;;;;5051461;28;20021;-73
2021/07/04 02:40:25;;;;;;;2.63;2.42;;;19.50;84.80;;;;;;5051727;28;20021;-73
2021/07/04 02:42:51;;;;;;;2.70;2.50;;;19.50;84.80;;;;;;5051417;28;20021;-73
2021/07/04 02:45:17;;;;;;;2.90;2.70;;;19.60;84.80;;;;;;5052006;28;20024;-72
2021/07/04 02:47:43;;;;;;;3.58;2.70;;;19.50;84.80;;;;;;5051472;28;20040;-73
2021/07/04 02:50:10;;;;;;;3.33;2.90;;;19.60;84.90;;;;;;5051447;28;20053;-73
2021/07/04 02:52:35;;;;;;;2.50;2.30;;;19.60;84.90;;;;;;5053079;28;20025;-73
2021/07/04 02:55:03;;;;;;;2.90;2.53;;;19.50;84.80;;;;;;5051115;28;20440;-74
2021/07/04 02:57:28;;;;;;;2.75;2.55;;;19.50;84.70;;;;;;5051391;28;20480;-73
2021/07/04 02:59:54;;;;;;;2.78;2.58;;;19.50;84.70;;;;;;5051357;28;20021;-73
2021/07/04 03:02:20;;;;;;;2.50;2.30;;;19.50;84.80;;;;;;5051139;28;20087;-72
2021/07/04 03:04:47;;;;;;;2.75;2.55;;;19.60;84.80;;;;;;5051343;28;20024;-73
2021/07/04 03:07:13;;;;;;;2.67;2.40;;;19.50;84.80;;;;;;5050941;28;20048;-73
2021/07/04 03:09:40;;;;;;;2.60;2.40;;;19.50;84.80;;;;;;5051397;28;20025;-73
2021/07/04 03:12:06;;;;;;;2.70;2.50;;;19.50;84.70;;;;;;5052596;28;20032;-73
2021/07/04 03:14:33;;;;;;;2.40;2.17;;;19.50;84.70;;;;;;5051211;28;20025;-73
2021/07/04 03:16:59;;;;;;;2.83;2.38;;;19.50;84.70;;;;;;5052476;28;20041;-73
2021/07/04 03:19:24;;;;;;;2.38;2.17;;;19.50;84.70;;;;;;5052516;28;20033;-73
2021/07/04 03:21:50;;;;;;;2.35;1.90;;;19.50;84.60;;;;;;5052346;28;20104;-73
2021/07/04 03:24:16;;;;;;;2.38;2.17;;;19.50;84.60;;;;;;5052406;28;20112;-73
2021/07/04 03:26:41;;;;;;;2.60;2.40;;;19.60;84.70;;;;;;5052593;28;20037;-73
2021/07/04 03:29:07;;;;;;;2.75;2.30;;;19.60;84.70;;;;;;5051062;28;20029;-73
2021/07/04 03:31:33;;;;;;;2.50;2.30;;;19.60;84.80;;;;;;5052168;28;20028;-73
2021/07/04 03:33:59;;;;;;;2.60;2.40;;;19.50;84.80;;;;;;5052307;28;20083;-73
2021/07/04 03:36:25;;;;;;;2.50;2.30;;;19.60;84.90;;;;;;5050915;28;20064;-73
2021/07/04 03:38:50;;;;;;;2.85;2.60;;;19.60;84.90;;;;;;5054211;28;20053;-74
2021/07/04 03:41:16;;;;;;;2.63;2.42;;;19.60;84.90;;;;;;5056208;28;20032;-74
2021/07/04 03:43:41;;;;;;;3.80;2.60;;;19.60;84.90;;;;;;5054622;28;20029;-73
2021/07/04 03:46:07;;;;;;;2.78;2.58;;;19.60;85.00;;;;;;5054896;28;20036;-73
2021/07/04 03:48:33;;;;;;;2.60;2.40;;;19.50;84.90;;;;;;5055774;28;20040;-73
2021/07/04 03:50:58;;;;;;;2.78;2.55;;;19.50;85.00;;;;;;5055783;28;20029;-73
2021/07/04 03:53:24;;;;;;;3.08;2.75;;;19.50;85.00;;;;;;5054548;28;20049;-73
2021/07/04 03:55:50;;;;;;;2.90;2.53;;;19.50;85.10;;;;;;5055717;28;20036;-73
2021/07/04 03:58:15;;;;;;;2.80;2.45;;;19.50;85.10;;;;;;5055614;28;20033;-73
2021/07/04 04:00:41;;;;;;;2.42;2.22;;;19.60;85.20;;;;;;5054649;28;20075;-72
2021/07/04 04:03:06;;;;;;;2.50;2.30;;;19.60;85.10;;;;;;5054159;28;20055;-73
2021/07/04 04:05:32;;;;;;;2.67;2.47;;;19.60;85.10;;;;;;5055479;28;20079;-72
2021/07/04 04:07:58;;;;;;;2.55;2.35;;;19.60;85.10;;;;;;5055199;28;20497;-73
2021/07/04 04:10:23;;;;;;;2.78;2.58;;;19.60;85.20;;;;;;5055403;28;20025;-73
2021/07/04 04:12:49;;;;;;;2.92;2.65;;;19.60;85.20;;;;;;5055425;28;20491;-72
2021/07/04 04:15:15;;;;;;;3.47;2.92;;;19.60;85.20;;;;;;5053975;28;20120;-73
2021/07/04 04:17:40;;;;;;;2.60;2.40;;;19.60;85.20;;;;;;5053960;28;20033;-72
2021/07/04 04:20:07;;;;;;;2.92;2.63;;;19.60;85.20;;;;;;5053948;28;20032;-73
2021/07/04 04:22:33;;;;;;;2.80;2.60;;;19.60;85.20;;;;;;5053936;28;20025;-72
2021/07/04 04:24:59;;;;;;;3.00;2.80;;;19.60;85.20;;;;;;5053844;28;20032;-73
2021/07/04 04:27:24;;;;;;;3.00;2.80;;;19.60;85.20;;;;;;5054953;28;20394;-73
2021/07/04 04:29:50;;;;;;;3.00;2.80;;;19.60;85.20;;;;;;5053673;28;20033;-74
2021/07/04 04:32:16;;;;;;;3.10;2.85;;;19.70;85.30;;;;;;5055055;28;20112;-73
2021/07/04 04:34:42;;;;;;;3.13;2.80;;;19.60;85.20;;;;;;5053671;28;20031;-73
2021/07/04 04:37:08;;;;;;;3.00;2.80;;;19.70;85.30;;;;;;5054947;28;20467;-73
2021/07/04 04:39:34;;;;;;;3.33;3.10;;;19.70;85.30;;;;;;5053641;28;20447;-74
2021/07/04 04:42:00;;;;;;;3.33;3.03;;;19.70;85.20;;;;;;5053472;28;20026;-74
2021/07/04 04:44:26;;;;;;;3.42;3.13;;;19.80;85.20;;;;;;5053600;28;20071;-74
2021/07/04 04:46:51;;;;;;;3.80;3.08;;;19.80;85.10;;;;;;5053272;28;20057;-74
2021/07/04 04:49:17;;;;;;;3.50;3.20;;;19.80;85.10;;;;;;5054290;28;20021;-74
2021/07/04 04:51:43;;;;;;;3.60;3.30;;;19.80;85.00;;;;;;5054340;28;20029;-74
2021/07/04 04:54:08;;;;;;;4.40;4.00;;;19.80;85.00;;;;;;5053255;28;20033;-74
2021/07/04 04:56:35;;;;;;;3.78;3.47;;;19.80;85.00;;;;;;5054517;28;20078;-72
2021/07/04 04:59:01;;;;;;;3.80;3.50;;;19.70;84.90;;;;;;5053425;28;20488;-72
2021/07/04 05:01:28;;;;;;;4.28;3.92;;;19.70;85.00;;;;;;5053359;28;20059;-74
2021/07/04 05:03:54;;;;;;;3.45;3.15;;;19.80;85.00;;;;;;5053105;28;20118;-73
2021/07/04 05:06:20;;;;;;;3.42;3.15;;;19.80;85.00;;;;;;5052993;28;20032;-74
2021/07/04 05:08:45;;;;;;;3.67;3.38;;;19.80;84.90;;;;;;5054036;28;20119;-74
2021/07/04 05:11:11;;;;;;;4.03;3.63;;;19.80;84.90;;;;;;5054261;28;20058;-74
2021/07/04 05:13:38;;;;;;;4.47;4.07;;;19.80;84.90;;;;;;5053842;28;20455;-73
2021/07/04 05:16:05;;;;;;;4.00;3.70;;;19.80;84.90;;;;;;5054113;28;20036;-73
2021/07/04 05:18:31;;;;;;;3.78;3.47;;;19.80;84.90;;;;;;5052711;28;20493;-73
2021/07/04 05:20:56;;;;;;;3.67;3.38;;;19.90;84.90;;;;;;5053971;28;20040;-73
2021/07/04 05:23:22;;;;;;;3.80;3.50;;;19.90;84.80;;;;;;5053943;28;20036;-73
2021/07/04 05:25:49;;;;;;;3.70;3.40;;;20.00;84.70;;;;;;5052615;28;20024;-73
2021/07/04 05:28:16;;;;;;;3.88;3.58;;;20.00;84.70;;;;;;5052645;28;20017;-73
2021/07/04 05:30:42;;;;;;;4.40;4.00;;;20.00;84.70;;;;;;5052527;28;20115;-72
2021/07/04 05:33:07;;;;;;;4.00;3.70;;;19.90;84.60;;;;;;5053759;28;20126;-73
2021/07/04 05:36:01;;;;;;;4.10;3.80;;;19.80;84.70;;;;;;5054026;28;20025;-74
2021/07/04 05:38:32;;;;;;;4.32;3.92;;;19.80;84.80;;;;;;5052408;28;20061;-73
2021/07/04 05:40:57;;;;;;;4.57;4.18;;;19.80;84.80;;;;;;5052355;28;20021;-73
2021/07/04 05:43:23;;;;;;;4.38;3.97;;;19.90;84.80;;;;;;5052803;28;20021;-74
2021/07/04 05:45:49;;;;;;;5.10;4.60;;;19.90;84.70;;;;;;5053928;28;20519;-74
2021/07/04 05:48:14;;;;;;;5.40;4.90;;;20.00;84.70;;;;;;5052407;28;20498;-74
2021/07/04 05:50:40;;;;;;;5.63;5.13;;;20.10;84.50;;;;;;5053616;28;20366;-74
2021/07/04 05:53:06;;;;;;;5.40;4.90;;;20.10;84.30;;;;;;5052231;28;20082;-74
2021/07/04 05:55:32;;;;;;;5.85;5.35;;;20.10;84.30;;;;;;5053531;28;20506;-74
2021/07/04 05:57:57;;;;;;;6.43;5.75;;;20.10;84.40;;;;;;5053480;28;20033;-74
2021/07/04 06:00:23;;;;;;;5.50;4.95;;;20.10;84.40;;;;;;5053606;28;20025;-75
2021/07/04 06:02:49;;;;;;;5.47;4.97;;;20.10;84.40;;;;;;5053554;28;20075;-74
2021/07/04 06:05:17;;;;;;;5.97;5.47;;;20.10;84.40;;;;;;5052089;28;20226;-72
2021/07/04 06:07:43;;;;;;;6.45;5.55;;;20.20;84.40;;;;;;5052961;28;20041;-72
2021/07/04 06:10:09;;;;;;;6.30;5.70;;;20.20;84.20;;;;;;5051860;28;20031;-75
2021/07/04 06:12:35;;;;;;;6.50;5.90;;;20.30;84.10;;;;;;5051806;28;20025;-73
2021/07/04 06:15:01;;;;;;;6.70;6.00;;;20.30;83.90;;;;;;5051765;28;20068;-73
2021/07/04 06:17:26;;;;;;;6.22;5.63;;;20.40;83.80;;;;;;5051723;28;20085;-74
2021/07/04 06:19:52;;;;;;;6.82;6.15;;;20.40;83.70;;;;;;5051827;28;20122;-74
2021/07/04 06:22:17;;;;;;;7.45;6.75;;;20.40;83.60;;;;;;5051915;28;20510;-73
2021/07/04 06:24:43;;;;;;;7.65;6.85;;;20.40;83.60;;;;;;5051717;28;20021;-73
2021/07/04 06:27:09;;;;;;;7.78;6.95;;;20.40;83.70;;;;;;5052761;28;20036;-73
2021/07/04 06:29:34;;;;;;;8.30;7.38;;;20.40;83.80;;;;;;5052914;28;20040;-73
2021/07/04 06:32:00;;;;;;;8.65;7.22;;;20.40;83.80;;;;;;5051532;28;20108;-73
2021/07/04 06:34:25;;;;;;;7.95;6.95;;;20.40;83.70;;;;;;5051592;28;20558;-73
2021/07/04 06:36:51;;;;;;;8.48;7.30;;;20.50;83.70;;;;;;5052776;28;20063;-73
2021/07/04 06:39:17;;;;;;;8.07;7.15;;;20.50;83.50;;;;;;5052773;28;20459;-73
2021/07/04 06:41:42;;;;;;;8.30;7.50;;;20.60;83.40;;;;;;5052866;28;20028;-74
2021/07/04 06:44:08;;;;;;;8.52;7.70;;;20.70;83.10;;;;;;5052743;28;20044;-74
2021/07/04 06:46:33;;;;;;;9.57;8.57;;;20.80;82.90;;;;;;5052800;28;20021;-74
2021/07/04 06:48:59;;;;;;;8.35;7.45;;;20.90;83.50;;;;;;5051548;28;20029;-74
2021/07/04 06:51:25;;;;;;;8.95;7.93;;;21.00;82.80;;;;;;5052981;28;20086;-74
2021/07/04 06:53:51;;;;;;;10.07;8.05;;;21.00;82.70;;;;;;5051409;28;20024;-74
2021/07/04 06:56:16;;;;;;;8.77;7.60;;;21.00;82.60;;;;;;5051353;28;20029;-74
2021/07/04 06:58:42;;;;;;;9.35;8.10;;;21.00;82.60;;;;;;5052811;28;20067;-73
2021/07/04 07:01:08;;;;;;;10.38;9.10;;;21.00;82.60;;;;;;5051293;28;20508;-74
2021/07/04 07:03:35;;;;;;;10.30;8.57;;;20.90;82.60;;;;;;5051436;28;20025;-74
2021/07/04 07:06:00;;;;;;;9.77;8.48;;;20.90;82.60;;;;;;5051247;28;20057;-74
2021/07/04 07:08:26;;;;;;;11.02;9.20;;;20.90;82.60;;;;;;5051276;28;20064;-73
2021/07/04 07:10:52;;;;;;;11.85;10.05;;;20.90;82.50;;;;;;5052464;28;20108;-73
2021/07/04 07:13:17;;;;;;;11.77;10.40;;;20.90;82.40;;;;;;5052857;28;20024;-73
2021/07/04 07:15:45;;;;;;;11.55;10.23;;;20.90;82.40;;;;;;5055071;28;20021;-73
2021/07/04 07:18:11;;;;;;;13.70;11.07;;;20.90;82.40;;;;;;5054896;28;20120;-74
2021/07/04 07:20:37;;;;;;;12.80;10.68;;;20.90;82.30;;;;;;5054937;28;20107;-74
2021/07/04 07:23:03;;;;;;;12.30;10.65;;;20.90;82.20;;;;;;5055066;28;20524;-73
2021/07/04 07:25:30;;;;;;;11.13;9.98;;;21.00;82.20;;;;;;5055169;28;20084;-73
2021/07/04 07:27:56;;;;;;;11.50;9.90;;;21.10;82.00;;;;;;5054847;28;20497;-73
2021/07/04 07:30:22;;;;;;;12.98;11.35;;;21.20;81.70;;;;;;5056141;28;20068;-73
2021/07/04 07:32:48;;;;;;;13.85;11.48;;;21.20;81.50;;;;;;5054821;28;20023;-73
2021/07/04 07:35:14;;;;;;;13.55;11.35;;;21.20;81.30;;;;;;5055138;28;20540;-73
2021/07/04 07:37:41;;;;;;;14.65;11.75;;;21.20;81.30;;;;;;5056095;28;20036;-73
2021/07/04 07:40:08;;;;;;;12.48;11.23;;;21.10;81.40;;;;;;5056162;28;20087;-73
2021/07/04 07:42:35;;;;;;;13.52;11.63;;;21.10;81.50;;;;;;5054731;28;20028;-73
2021/07/04 07:45:03;;;;;;;12.52;11.20;;;21.10;81.40;;;;;;5054478;28;20036;-73
2021/07/04 07:50:50;;;;;;;12.35;11.13;;;21.20;81.20;;;;;;5055856;28;20024;-73
2021/07/04 07:53:16;;;;;;;12.40;10.30;;;21.20;81.10;;;;;;5054419;28;20021;-73
2021/07/04 07:55:42;;;;;;;11.57;10.38;;;21.30;81.00;;;;;;5055575;28;20064;-73
2021/07/04 07:58:07;;;;;;;11.07;10.02;;;21.40;80.80;;;;;;5054274;28;20064;-72
2021/07/04 08:00:35;;;;;;;14.48;12.95;;;21.40;80.50;;;;;;5054390;28;20056;-74
2021/07/04 08:03:01;;;;;;;13.95;11.70;;;21.50;80.30;;;;;;5054238;28;20093;-73
2021/07/04 08:05:27;;;;;;;15.15;11.57;;;21.50;80.20;;;;;;5055688;28;20025;-74
2021/07/04 08:07:53;;;;;;;14.18;11.93;;;21.60;80.00;;;;;;5055251;28;20045;-73
2021/07/04 08:10:18;;;;;;;12.13;10.77;;;21.70;79.90;;;;;;5054393;28;20112;-74
2021/07/04 08:12:44;;;;;;;11.90;10.68;;;21.80;80.00;;;;;;5054187;28;20024;-73
2021/07/04 08:15:11;;;;;;;11.27;10.07;;;21.90;80.00;;;;;;5054026;28;20021;-72
2021/07/04 08:17:37;;;;;;;12.52;11.23;;;21.90;79.70;;;;;;5055504;28;20025;-71
2021/07/04 08:20:05;;;;;;;12.57;10.82;;;22.00;79.50;;;;;;5055343;28;20552;-72
2021/07/04 08:22:31;;;;;;;12.05;10.65;;;21.90;79.30;;;;;;5053835;28;20033;-72
2021/07/04 08:24:56;;;;;;;11.70;10.32;;;21.90;79.30;;;;;;5052574;28;20025;-73
2021/07/04 08:27:22;;;;;;;13.38;11.07;;;21.90;79.30;;;;;;5055033;28;20032;-72
2021/07/04 08:29:48;;;;;;;13.48;11.65;;;21.90;79.30;;;;;;5053778;28;20099;-73
2021/07/04 08:32:13;;;;;;;12.80;10.40;;;21.90;79.20;;;;;;5053645;28;20025;-72
2021/07/04 08:34:39;;;;;;;13.05;11.00;;;21.80;79.20;;;;;;5054984;28;20484;-73
2021/07/04 08:37:04;;;;;;;12.45;10.95;;;21.90;79.20;;;;;;5053654;28;20421;-71
2021/07/04 08:39:31;;;;;;;12.52;10.73;;;22.00;79.10;;;;;;5053383;28;20530;-71
2021/07/04 08:41:57;;;;;;;12.63;10.50;;;22.00;78.90;;;;;;5055083;28;20029;-71
2021/07/04 08:44:23;;;;;;;12.73;10.52;;;22.10;78.40;;;;;;5054654;28;20404;-71
2021/07/04 08:46:48;;;;;;;12.48;10.70;;;22.20;78.10;;;;;;5054407;28;20068;-71
2021/07/04 08:49:14;;;;;;;14.90;11.75;;;22.20;77.70;;;;;;5053189;28;20029;-71
2021/07/04 08:51:40;;;;;;;13.60;10.98;;;22.20;78.00;;;;;;5053268;28;20090;-70
2021/07/04 08:54:06;;;;;;;14.48;11.77;;;22.20;77.50;;;;;;5054389;28;20036;-72
2021/07/04 08:56:32;;;;;;;14.30;11.82;;;22.10;77.60;;;;;;5053335;28;20021;-73
2021/07/04 08:58:57;;;;;;;13.65;12.20;;;22.10;77.60;;;;;;5054330;28;20025;-73
2021/07/04 09:01:25;;;;;;;14.30;11.18;;;22.10;77.30;;;;;;5053273;28;20025;-72
2021/07/04 09:04:06;;;;;;;13.30;10.10;;;22.10;77.40;;;;;;5052986;28;20048;-72
2021/07/04 09:06:47;;;;;;;12.45;9.55;;;22.10;77.20;;;;;;5053061;28;20029;-73
2021/07/04 09:09:24;;;;;;;11.40;9.90;;;22.30;76.90;;;;;;5052712;28;20365;-73
2021/07/04 09:12:11;;;;;;;14.93;10.93;;;22.40;76.60;;;;;;5052815;28;20052;-72
2021/07/04 09:14:45;;;;;;;11.43;9.90;;;22.50;76.30;;;;;;5053353;28;20029;-72
2021/07/04 09:17:14;;;;;;;12.75;10.40;;;22.70;75.80;;;;;;5053971;28;20057;-71
2021/07/04 09:20:00;;;;;;;11.35;9.02;;;22.80;76.00;;;;;;5052818;28;20033;-72
2021/07/04 09:22:34;;;;;;;8.93;8.02;;;22.90;74.70;;;;;;5053707;28;20129;-71
2021/07/04 09:25:21;;;;;;;10.25;8.95;;;23.00;74.40;;;;;;5054046;28;20056;-72
2021/07/04 09:28:04;;;;;;;11.02;8.57;;;23.00;74.30;;;;;;5052506;28;20029;-72
2021/07/04 09:30:39;;;;;;;9.35;8.18;;;22.90;74.00;;;;;;5052411;28;20074;-71
2021/07/04 09:33:25;;;;;;;8.77;7.88;;;22.80;74.00;;;;;;5053724;28;20021;-70
2021/07/04 09:36:04;;;;;;;8.43;7.63;;;22.90;73.90;;;;;;5053468;28;20025;-70
2021/07/04 09:38:33;;;;;;;7.68;6.88;;;23.00;74.00;;;;;;5054113;28;20025;-71
2021/07/04 09:41:00;;;;;;;8.43;7.60;;;23.10;73.80;;;;;;5052647;28;20067;-70
2021/07/04 09:43:30;;;;;;;8.25;7.40;;;23.20;73.60;;;;;;5052201;28;20389;-72
2021/07/04 09:46:01;;;;;;;8.45;7.53;;;23.30;73.20;;;;;;5053759;28;20032;-70
2021/07/04 09:48:30;;;;;;;8.95;7.70;;;23.50;73.00;;;;;;5052194;28;20393;-70
2021/07/04 09:51:11;;;;;;;8.45;7.35;;;23.60;72.60;;;;;;5053483;28;20025;-70
2021/07/04 09:53:48;;;;;;;7.65;6.95;;;23.60;72.20;;;;;;5053521;28;20035;-71
2021/07/04 09:56:15;;;;;;;8.05;7.25;;;23.70;71.90;;;;;;5052008;28;20044;-72
2021/07/04 09:58:43;;;;;;;9.00;7.97;;;23.70;71.60;;;;;;5052136;28;20373;-70
2021/07/04 10:01:10;;;;;;;7.53;6.68;;;23.60;71.10;;;;;;5053236;28;20087;-70
2021/07/04 10:03:42;;;;;;;8.77;7.88;;;23.60;70.80;;;;;;5052972;28;20033;-71
2021/07/04 10:06:10;;;;;;;7.65;6.85;;;23.60;70.30;;;;;;5053063;28;20520;-70
2021/07/04 10:08:40;;;;;;;7.82;7.03;;;23.60;70.30;;;;;;5052005;28;20079;-71
2021/07/04 10:11:14;;;;;;;9.68;7.47;;;23.80;70.20;;;;;;5053215;28;20472;-71
2021/07/04 10:13:46;;;;;;;8.18;7.38;;;24.00;69.90;;;;;;5051788;28;20036;-72
2021/07/04 10:16:13;;;;;;;7.13;6.43;;;24.00;69.60;;;;;;5052949;28;20032;-71
2021/07/04 10:18:42;;;;;;;8.32;7.47;;;24.20;69.40;;;;;;5053449;28;20029;-72
2021/07/04 10:21:08;;;;;;;8.23;7.35;;;24.30;69.00;;;;;;5051745;28;20067;-73
2021/07/04 10:23:34;;;;;;;8.60;7.70;;;24.30;68.70;;;;;;5053105;28;20404;-73
2021/07/04 10:26:01;;;;;;;7.88;6.80;;;24.30;68.40;;;;;;5052873;28;20079;-73
2021/07/04 10:28:39;;;;;;;7.80;6.80;;;24.30;68.40;;;;;;5052905;28;20028;-71
2021/07/04 10:31:12;;;;;;;6.93;6.22;;;24.20;68.00;;;;;;5051616;28;20017;-72
2021/07/04 10:33:38;;;;;;;7.22;6.45;;;24.10;67.70;;;;;;5053251;28;20029;-71
2021/07/04 10:36:10;;;;;;;8.02;7.22;;;24.10;68.00;;;;;;5052960;28;20392;-72
2021/07/04 10:39:09;;;;;;;7.93;7.13;;;24.10;68.00;;;;;;5052836;28;20033;-74
2021/07/04 10:41:35;;;;;;;7.90;6.85;;;24.10;68.00;;;;;;5052736;28;20535;-72
2021/07/04 10:44:11;;;;;;;8.75;7.55;;;24.20;68.30;;;;;;5051371;28;20021;-73
2021/07/04 10:46:43;;;;;;;7.80;7.00;;;24.30;67.90;;;;;;5051415;28;20037;-73
2021/07/04 10:49:17;;;;;;;10.20;9.20;;;24.30;67.70;;;;;;5055739;28;20028;-74
2021/07/04 10:51:55;;;;;;;10.77;9.63;;;24.20;67.10;;;;;;5056150;28;20322;-73
2021/07/04 10:54:45;;;;;;;9.07;8.23;;;24.10;67.00;;;;;;5056990;28;20032;-72
2021/07/04 10:57:20;;;;;;;9.25;8.35;;;24.00;67.40;;;;;;5056081;28;20029;-72
2021/07/04 11:02:57;;;;;;;7.57;6.78;;;24.00;67.30;;;;;;5057042;28;20037;-72
2021/07/04 11:05:35;;;;;;;7.72;6.82;;;24.10;67.30;;;;;;5057044;28;20079;-72
2021/07/04 11:08:11;;;;;;;7.15;6.10;;;24.20;66.70;;;;;;5055256;28;20053;-73
2021/07/04 11:11:08;;;;;;;6.75;6.13;;;24.30;66.40;;;;;;5055463;28;20091;-72
2021/07/04 11:13:42;;;;;;;5.57;4.93;;;24.30;65.90;;;;;;5055434;28;20025;-73
2021/07/04 11:16:14;;;;;;;5.90;5.30;;;24.40;65.80;;;;;;5056622;28;20548;-73
2021/07/04 11:18:49;;;;;;;9.02;8.13;;;24.50;65.80;;;;;;5056522;28;20476;-72
2021/07/04 11:21:17;;;;;;;9.40;8.40;;;24.50;65.60;;;;;;5055153;28;20021;-73
2021/07/04 11:23:44;;;;;;;8.80;7.75;;;24.50;65.00;;;;;;5055121;28;20383;-73
2021/07/04 11:26:13;;;;;;;7.47;6.78;;;24.50;65.00;;;;;;5055020;28;20025;-73
2021/07/04 11:28:40;;;;;;;7.30;6.60;;;24.60;65.20;;;;;;5055539;28;20102;-77
2021/07/04 11:31:19;;;;;;;7.57;6.78;;;24.60;65.30;;;;;;5056313;28;20075;-77
2021/07/04 11:33:49;;;;;;;7.40;6.30;;;24.70;64.90;;;;;;5055028;28;20032;-77
2021/07/04 11:36:14;;;;;;;6.80;6.00;;;24.70;64.60;;;;;;5056165;28;20546;-76
2021/07/04 11:38:46;;;;;;;6.13;5.40;;;24.70;64.50;;;;;;5055072;28;20029;-79
2021/07/04 11:41:18;;;;;;;6.25;5.65;;;24.70;64.40;;;;;;5055029;28;20044;-78
2021/07/04 11:43:45;;;;;;;6.03;5.43;;;24.90;64.50;;;;;;5056248;28;20029;-78
2021/07/04 11:46:16;;;;;;;5.75;5.25;;;25.00;64.90;;;;;;5054752;28;20112;-77
2021/07/04 11:48:48;;;;;;;6.10;5.55;;;25.30;63.50;;;;;;5054730;28;20055;-77
2021/07/04 11:51:43;;;;;;;5.95;5.45;;;25.40;63.10;;;;;;5056299;28;20481;-78
2021/07/04 11:54:25;;;;;;;5.82;5.32;;;25.60;62.90;;;;;;5054614;28;20057;-77
2021/07/04 11:56:56;;;;;;;5.38;4.82;;;25.70;63.10;;;;;;5055736;28;20106;-77
2021/07/04 11:59:27;;;;;;;6.03;5.43;;;25.80;62.80;;;;;;5054274;28;20073;-79
2021/07/04 12:02:01;;;;;;;5.35;4.85;;;25.80;62.50;;;;;;5054686;28;20060;-78
2021/07/04 12:04:33;;;;;;;6.10;5.50;;;25.80;62.60;;;;;;5054504;28;20032;-78
2021/07/04 12:07:08;;;;;;;5.28;4.78;;;25.90;62.70;;;;;;5055544;28;20045;-79
2021/07/04 12:09:55;;;;;;;5.93;4.85;;;25.80;61.80;;;;;;5054529;28;20033;-78
2021/07/04 12:12:25;;;;;;;4.93;4.40;;;25.80;61.30;;;;;;5056124;28;20489;-76
2021/07/04 12:14:53;;;;;;;4.68;4.28;;;25.80;61.40;;;;;;5054812;28;20021;-76
2021/07/04 12:17:25;;;;;;;5.65;4.50;;;25.90;61.20;;;;;;5054431;28;20080;-73
2021/07/04 12:20:04;;;;;;;5.30;4.80;;;26.00;60.90;;;;;;5055193;28;20029;-73
2021/07/04 12:22:35;;;;;;;5.13;4.25;;;26.00;60.80;;;;;;5053976;28;20044;-74
2021/07/04 12:25:09;;;;;;;5.10;4.57;;;26.00;60.80;;;;;;5055333;28;20033;-76
2021/07/04 12:27:50;;;;;;;4.55;4.15;;;26.00;60.60;;;;;;5053741;28;20029;-74
2021/07/04 12:30:38;;;;;;;4.50;4.10;;;26.10;60.50;;;;;;5055194;28;20415;-73
2021/07/04 12:33:20;;;;;;;4.55;4.10;;;26.20;60.40;;;;;;5047585;28;20138;-74
2021/07/04 12:35:50;;;;;;;5.28;4.78;;;26.30;60.10;;;;;;5054073;28;20033;-74
2021/07/04 12:38:21;;;;;;;5.38;4.30;;;26.40;60.00;;;;;;5054060;28;20021;-74
2021/07/04 12:41:00;;;;;;;5.82;5.05;;;26.50;59.70;;;;;;5055201;28;20021;-74
2021/07/04 12:43:49;;;;;;;6.22;4.57;;;26.50;59.10;;;;;;5054862;28;20025;-74
2021/07/04 12:46:27;;;;;;;5.70;4.95;;;26.50;59.40;;;;;;5053571;28;20025;-74
2021/07/04 12:48:59;;;;;;;5.70;5.03;;;26.60;59.50;;;;;;5053550;28;20035;-73
2021/07/04 12:51:37;;;;;;;6.13;5.53;;;26.60;59.40;;;;;;5053525;28;20056;-72
2021/07/04 12:54:18;;;;;;;5.95;5.30;;;26.60;59.60;;;;;;5053363;28;20025;-73
2021/07/04 12:56:49;;;;;;;5.63;5.00;;;26.60;59.50;;;;;;5053713;28;20057;-73